Time;durP1;ratioP1;P1;durP2;ratioP2;P2;SDS_P1;SDS_P2;PMS_P1;PMS_P2;Temp;Humidity;BMP_temperature;BMP_pressure;BME280_temperature;BME280_humidity;BME280_pressure;Samples;Min_cycle;Max_cycle;Signal;HPM_P1;HPM_P2
2022/03/09 00:00:54;;;;;;;52.53;22.60;;;;;;;;;;5041747;28;20037;-78
2022/03/09 00:03:19;;;;;;;54.30;23.08;;;;;;;;;;5042187;28;20028;-76
2022/03/09 00:05:45;;;;;;;54.53;23.63;;;;;;;;;;5041833;28;20036;-76
2022/03/09 00:08:10;;;;;;;56.85;22.90;;;;;;;;;;5055094;28;20033;-78
2022/03/09 00:10:35;;;;;;;55.33;22.85;;;;;;;;;;5057280;28;20021;-77
2022/03/09 00:13:01;;;;;;;58.40;23.60;;;;;;;;;;5045648;28;20033;-77
2022/03/09 00:15:26;;;;;;;54.65;23.30;;;;;;;;;;5048582;28;20029;-77
2022/03/09 00:17:51;;;;;;;49.97;21.92;;;;;;;;;;5048175;28;20325;-78
2022/03/09 00:20:17;;;;;;;51.72;23.25;;;;;;;;;;5040399;28;20596;-76
2022/03/09 00:22:42;;;;;;;55.60;22.50;;;;;;;;;;5041607;28;20025;-76
2022/03/09 00:25:08;;;;;;;57.60;23.48;;;;;;;;;;5040857;28;20039;-76
2022/03/09 00:27:34;;;;;;;51.40;23.23;;;;;;;;;;5041714;28;20358;-76
2022/03/09 00:29:59;;;;;;;50.55;21.83;;;;;;;;;;5051483;28;20031;-75
2022/03/09 00:32:25;;;;;;;49.75;23.30;;;;;;;;;;5061032;28;20029;-76
2022/03/09 00:34:50;;;;;;;49.50;21.88;;;;;;;;;;5061379;28;20040;-76
2022/03/09 00:37:16;;;;;;;52.47;22.67;;;;;;;;;;5041525;28;20037;-76
2022/03/09 00:39:41;;;;;;;55.65;22.67;;;;;;;;;;5040621;28;20033;-76
2022/03/09 00:42:06;;;;;;;57.58;24.00;;;;;;;;;;5053256;28;20044;-76
2022/03/09 00:44:32;;;;;;;69.78;28.30;;;;;;;;;;5040964;28;20106;-75
2022/03/09 00:46:57;;;;;;;63.20;26.88;;;;;;;;;;5041449;28;20029;-76
2022/03/09 00:49:23;;;;;;;61.20;26.08;;;;;;;;;;5048293;28;20241;-76
2022/03/09 00:51:49;;;;;;;52.03;23.80;;;;;;;;;;5061073;28;20021;-77
2022/03/09 00:54:14;;;;;;;57.35;23.90;;;;;;;;;;5059275;28;20028;-73
2022/03/09 00:56:40;;;;;;;58.80;24.85;;;;;;;;;;5061125;28;20044;-74
2022/03/09 00:59:05;;;;;;;63.75;24.70;;;;;;;;;;5061085;28;20285;-74
2022/03/09 01:01:31;;;;;;;62.05;25.10;;;;;;;;;;5054341;28;20081;-77
2022/03/09 01:03:56;;;;;;;59.75;23.92;;;;;;;;;;5041045;28;20029;-80
2022/03/09 01:06:21;;;;;;;65.65;25.17;;;;;;;;;;5021991;28;20225;-79
2022/03/09 01:08:47;;;;;;;56.72;24.23;;;;;;;;;;5019353;28;20018;-80
2022/03/09 01:11:13;;;;;;;59.33;22.20;;;;;;;;;;5020033;28;20057;-81
2022/03/09 01:13:38;;;;;;;56.70;22.77;;;;;;;;;;5023653;28;20101;-81
2022/03/09 01:16:04;;;;;;;59.10;22.75;;;;;;;;;;5020305;28;20117;-79
2022/03/09 01:18:29;;;;;;;58.55;23.20;;;;;;;;;;5021339;28;20038;-81
2022/03/09 01:20:55;;;;;;;57.50;23.90;;;;;;;;;;5019749;28;20330;-80
2022/03/09 01:23:20;;;;;;;56.90;23.52;;;;;;;;;;5019268;28;20088;-80
2022/03/09 01:25:46;;;;;;;51.15;22.48;;;;;;;;;;5026532;28;20022;-80
2022/03/09 01:28:11;;;;;;;59.13;23.45;;;;;;;;;;5021184;28;20026;-79
2022/03/09 01:30:37;;;;;;;63.08;26.25;;;;;;;;;;5023330;28;20206;-80
2022/03/09 01:33:02;;;;;;;78.38;30.48;;;;;;;;;;5023922;28;20088;-81
2022/03/09 01:35:27;;;;;;;76.18;30.45;;;;;;;;;;5023505;28;20068;-79
2022/03/09 01:37:53;;;;;;;82.40;28.48;;;;;;;;;;5023897;28;20053;-80
2022/03/09 01:40:21;;;;;;;70.10;28.10;;;;;;;;;;5028083;28;20053;-79
2022/03/09 01:42:47;;;;;;;81.15;28.73;;;;;;;;;;5023652;28;20022;-80
2022/03/09 01:45:14;;;;;;;68.45;26.63;;;;;;;;;;5023404;28;20041;-79
2022/03/09 01:47:39;;;;;;;66.90;27.95;;;;;;;;;;5023429;28;20018;-81
2022/03/09 01:50:08;;;;;;;61.95;25.48;;;;;;;;;;5023656;28;20265;-77
2022/03/09 01:52:33;;;;;;;63.75;26.08;;;;;;;;;;5023221;28;20150;-79
2022/03/09 01:54:59;;;;;;;61.75;25.05;;;;;;;;;;5022886;28;20021;-79
2022/03/09 01:57:24;;;;;;;60.33;24.20;;;;;;;;;;5033774;28;20040;-78
2022/03/09 01:59:51;;;;;;;59.88;24.48;;;;;;;;;;5023623;28;20021;-79
2022/03/09 02:02:17;;;;;;;57.78;24.25;;;;;;;;;;5031231;28;20090;-80
2022/03/09 02:04:43;;;;;;;57.85;24.02;;;;;;;;;;5023248;28;20049;-80
2022/03/09 02:07:09;;;;;;;61.53;25.88;;;;;;;;;;5022899;28;20026;-78
2022/03/09 02:09:42;;;;;;;68.40;26.83;;;;;;;;;;5022501;28;20024;-80
2022/03/09 02:12:11;;;;;;;67.65;26.60;;;;;;;;;;5022834;28;20091;-79
2022/03/09 02:14:41;;;;;;;62.13;25.35;;;;;;;;;;5028716;28;20030;-78
2022/03/09 02:17:14;;;;;;;61.22;24.65;;;;;;;;;;5031922;28;20199;-80
2022/03/09 02:19:42;;;;;;;69.50;25.90;;;;;;;;;;5043758;28;20036;-80
2022/03/09 02:22:20;;;;;;;60.70;25.52;;;;;;;;;;5043845;28;20032;-80
2022/03/09 02:24:50;;;;;;;66.10;26.23;;;;;;;;;;5043388;28;20021;-82
2022/03/09 02:27:16;;;;;;;68.47;27.10;;;;;;;;;;5041904;28;20679;-77
2022/03/09 02:29:42;;;;;;;64.57;25.05;;;;;;;;;;5044050;28;20213;-79
2022/03/09 02:32:08;;;;;;;70.40;25.70;;;;;;;;;;5043739;28;20048;-81
2022/03/09 02:34:34;;;;;;;65.63;26.80;;;;;;;;;;5043828;28;20040;-78
2022/03/09 02:36:59;;;;;;;70.22;25.52;;;;;;;;;;5042326;28;20025;-79
2022/03/09 02:39:25;;;;;;;67.50;26.20;;;;;;;;;;5042430;28;20029;-80
2022/03/09 02:41:50;;;;;;;62.60;25.95;;;;;;;;;;5042954;28;20032;-80
2022/03/09 02:44:16;;;;;;;70.60;26.80;;;;;;;;;;5034965;28;20028;-79
2022/03/09 02:46:41;;;;;;;64.05;25.88;;;;;;;;;;5043555;28;20261;-79
2022/03/09 02:49:07;;;;;;;67.05;26.40;;;;;;;;;;5043356;28;20057;-80
2022/03/09 02:51:32;;;;;;;62.83;26.17;;;;;;;;;;5043121;28;20092;-80
2022/03/09 02:53:58;;;;;;;62.83;26.45;;;;;;;;;;5043274;28;20032;-80
2022/03/09 02:56:24;;;;;;;64.03;25.85;;;;;;;;;;5043312;28;20029;-80
2022/03/09 02:58:49;;;;;;;69.15;26.42;;;;;;;;;;5043343;28;20032;-80
2022/03/09 03:01:15;;;;;;;67.03;27.77;;;;;;;;;;5043130;28;20030;-80
2022/03/09 03:03:42;;;;;;;68.47;28.55;;;;;;;;;;5043132;28;20311;-80
2022/03/09 03:06:08;;;;;;;72.07;26.85;;;;;;;;;;5043066;28;20045;-78
2022/03/09 03:08:34;;;;;;;71.50;27.92;;;;;;;;;;5042809;28;20172;-80
2022/03/09 03:11:00;;;;;;;66.65;27.38;;;;;;;;;;5043074;28;20380;-80
2022/03/09 03:13:26;;;;;;;66.38;27.05;;;;;;;;;;5041678;28;20101;-80
2022/03/09 03:15:52;;;;;;;65.07;25.70;;;;;;;;;;5042947;28;20033;-79
2022/03/09 03:18:17;;;;;;;62.28;26.50;;;;;;;;;;5043124;28;20017;-79
2022/03/09 03:20:42;;;;;;;69.43;27.42;;;;;;;;;;5042599;28;20025;-80
2022/03/09 03:23:08;;;;;;;64.90;26.88;;;;;;;;;;5043126;28;20248;-80
2022/03/09 03:25:33;;;;;;;68.05;26.27;;;;;;;;;;5042553;28;20024;-80
2022/03/09 03:27:58;;;;;;;76.10;27.63;;;;;;;;;;5042801;28;20021;-80
2022/03/09 03:30:24;;;;;;;67.53;26.52;;;;;;;;;;5042672;28;20032;-78
2022/03/09 03:32:49;;;;;;;65.05;28.08;;;;;;;;;;5042463;28;20392;-80
2022/03/09 03:35:14;;;;;;;71.80;27.80;;;;;;;;;;5042307;28;20061;-80
2022/03/09 03:37:40;;;;;;;63.15;26.27;;;;;;;;;;5042495;28;20310;-79
2022/03/09 03:40:06;;;;;;;68.65;26.92;;;;;;;;;;5042041;28;20025;-80
2022/03/09 03:42:31;;;;;;;66.10;26.83;;;;;;;;;;5042233;28;20055;-78
2022/03/09 03:44:57;;;;;;;69.15;26.95;;;;;;;;;;5042359;28;20057;-79
2022/03/09 03:47:22;;;;;;;75.57;30.38;;;;;;;;;;5042361;28;20021;-80
2022/03/09 03:49:48;;;;;;;69.60;27.95;;;;;;;;;;5042074;28;20348;-80
2022/03/09 03:52:13;;;;;;;72.43;28.67;;;;;;;;;;5042141;28;20036;-79
2022/03/09 03:54:38;;;;;;;71.63;28.15;;;;;;;;;;5041342;28;20036;-79
2022/03/09 03:57:04;;;;;;;76.55;29.25;;;;;;;;;;5042307;28;20022;-79
2022/03/09 03:59:29;;;;;;;64.53;26.80;;;;;;;;;;5041985;28;20093;-80
2022/03/09 04:01:55;;;;;;;68.35;26.23;;;;;;;;;;5042170;28;20425;-79
2022/03/09 04:04:20;;;;;;;69.22;27.92;;;;;;;;;;5041984;28;20025;-80
2022/03/09 04:06:45;;;;;;;64.63;27.05;;;;;;;;;;5041592;28;20048;-80
2022/03/09 04:09:11;;;;;;;74.97;28.75;;;;;;;;;;5041939;28;20033;-80
2022/03/09 04:11:36;;;;;;;70.28;26.30;;;;;;;;;;5041902;28;20033;-79
2022/03/09 04:14:01;;;;;;;65.68;26.70;;;;;;;;;;5042064;28;20372;-79
2022/03/09 04:16:27;;;;;;;68.93;26.80;;;;;;;;;;5041575;28;20025;-80
2022/03/09 04:18:52;;;;;;;81.95;28.02;;;;;;;;;;5041356;28;20021;-80
2022/03/09 04:21:18;;;;;;;89.63;28.27;;;;;;;;;;5041686;28;20025;-79
2022/03/09 04:23:43;;;;;;;82.22;27.70;;;;;;;;;;5041686;28;20032;-78
2022/03/09 04:26:10;;;;;;;76.03;26.83;;;;;;;;;;5041557;28;20124;-79
2022/03/09 04:28:35;;;;;;;66.72;26.75;;;;;;;;;;5041774;28;20049;-78
2022/03/09 04:31:00;;;;;;;63.40;27.25;;;;;;;;;;5041635;28;20044;-74
2022/03/09 04:33:26;;;;;;;70.55;28.70;;;;;;;;;;5041124;28;20066;-74
2022/03/09 04:35:51;;;;;;;65.75;27.42;;;;;;;;;;5041270;28;20049;-73
2022/03/09 04:38:17;;;;;;;68.20;27.15;;;;;;;;;;5040971;28;20025;-73
2022/03/09 04:40:42;;;;;;;65.80;26.23;;;;;;;;;;5041169;28;20040;-73
2022/03/09 04:43:07;;;;;;;60.72;26.38;;;;;;;;;;5041431;28;20040;-73
2022/03/09 04:45:33;;;;;;;70.45;28.77;;;;;;;;;;5041364;28;20325;-72
2022/03/09 04:47:59;;;;;;;65.30;25.17;;;;;;;;;;5041209;28;20067;-73
2022/03/09 04:50:24;;;;;;;67.18;25.92;;;;;;;;;;5041104;28;20347;-77
2022/03/09 04:52:50;;;;;;;63.22;25.52;;;;;;;;;;5041247;28;20025;-75
2022/03/09 04:55:16;;;;;;;70.68;27.50;;;;;;;;;;5041075;28;20049;-76
2022/03/09 04:57:41;;;;;;;68.13;26.70;;;;;;;;;;5041134;28;20021;-76
2022/03/09 05:00:08;;;;;;;76.30;27.80;;;;;;;;;;5041121;28;20021;-76
2022/03/09 05:02:34;;;;;;;65.05;25.48;;;;;;;;;;5041051;28;20067;-77
2022/03/09 05:05:00;;;;;;;67.70;26.77;;;;;;;;;;5040786;28;20025;-75
2022/03/09 05:07:25;;;;;;;68.10;26.15;;;;;;;;;;5040816;28;20033;-75
2022/03/09 05:09:50;;;;;;;67.32;25.60;;;;;;;;;;5040861;28;20024;-74
2022/03/09 05:12:16;;;;;;;66.88;27.33;;;;;;;;;;5037315;28;20062;-74
2022/03/09 05:14:41;;;;;;;68.28;26.08;;;;;;;;;;5021349;28;20408;-75
2022/03/09 05:17:06;;;;;;;59.85;24.65;;;;;;;;;;5021055;28;20025;-74
2022/03/09 05:19:32;;;;;;;63.95;26.17;;;;;;;;;;5040853;28;20017;-74
2022/03/09 05:21:57;;;;;;;66.22;25.88;;;;;;;;;;5041043;28;20025;-74
2022/03/09 05:24:23;;;;;;;68.07;27.10;;;;;;;;;;5040543;28;20387;-74
2022/03/09 05:26:48;;;;;;;69.47;26.98;;;;;;;;;;5040792;28;20010;-73
2022/03/09 05:29:14;;;;;;;68.00;26.25;;;;;;;;;;5039837;28;20334;-74
2022/03/09 05:31:40;;;;;;;62.85;25.73;;;;;;;;;;5042144;28;20041;-74
2022/03/09 05:34:06;;;;;;;69.53;25.27;;;;;;;;;;5060786;28;20080;-73
2022/03/09 05:36:32;;;;;;;61.30;24.65;;;;;;;;;;5048002;28;20393;-74
2022/03/09 05:38:57;;;;;;;61.60;24.35;;;;;;;;;;5040654;28;20034;-74
2022/03/09 05:41:23;;;;;;;65.85;25.17;;;;;;;;;;5040705;28;20049;-77
2022/03/09 05:43:50;;;;;;;64.88;25.73;;;;;;;;;;5040760;28;20088;-78
2022/03/09 05:46:16;;;;;;;58.75;25.35;;;;;;;;;;5040576;28;20075;-76
2022/03/09 05:48:41;;;;;;;64.40;24.30;;;;;;;;;;5040765;28;20064;-78
2022/03/09 05:51:07;;;;;;;64.20;23.52;;;;;;;;;;5040483;28;20060;-79
2022/03/09 05:53:32;;;;;;;61.50;23.98;;;;;;;;;;5040328;28;20040;-79
2022/03/09 05:55:59;;;;;;;62.10;23.58;;;;;;;;;;5040711;28;20036;-78
2022/03/09 05:58:24;;;;;;;63.10;23.38;;;;;;;;;;5040796;28;20026;-80
2022/03/09 06:00:49;;;;;;;53.30;21.60;;;;;;;;;;5026437;28;20045;-79
2022/03/09 06:03:15;;;;;;;42.17;17.95;;;;;;;;;;5021108;28;20045;-78
2022/03/09 06:05:40;;;;;;;43.17;19.48;;;;;;;;;;5020916;28;20029;-80
2022/03/09 06:08:05;;;;;;;41.75;18.42;;;;;;;;;;5020764;28;20040;-80
2022/03/09 06:10:31;;;;;;;40.03;17.60;;;;;;;;;;5020841;28;20029;-79
2022/03/09 06:12:56;;;;;;;41.33;19.40;;;;;;;;;;5037354;28;20025;-78
2022/03/09 06:15:22;;;;;;;38.97;17.92;;;;;;;;;;5021095;28;20348;-80
2022/03/09 06:17:49;;;;;;;38.97;17.90;;;;;;;;;;5017085;28;20030;-74
2022/03/09 06:20:19;;;;;;;40.30;17.60;;;;;;;;;;5016431;28;20049;-78
2022/03/09 06:22:46;;;;;;;44.25;17.65;;;;;;;;;;5023742;28;20049;-78
2022/03/09 06:25:14;;;;;;;42.30;18.05;;;;;;;;;;5022763;28;20033;-80
2022/03/09 06:27:47;;;;;;;42.25;17.45;;;;;;;;;;5017270;28;20117;-74
2022/03/09 06:30:13;;;;;;;41.17;17.90;;;;;;;;;;5035387;28;20106;-78
2022/03/09 06:32:39;;;;;;;42.88;18.13;;;;;;;;;;5029793;28;20415;-79
2022/03/09 06:35:06;;;;;;;42.35;18.58;;;;;;;;;;5023270;28;20097;-77
2022/03/09 06:37:32;;;;;;;38.50;17.10;;;;;;;;;;5036614;28;20030;-77
2022/03/09 06:39:58;;;;;;;42.00;17.75;;;;;;;;;;5024819;28;20233;-76
2022/03/09 06:42:25;;;;;;;43.83;18.55;;;;;;;;;;5023810;28;20093;-76
2022/03/09 06:44:51;;;;;;;41.13;18.33;;;;;;;;;;5026572;28;20030;-76
2022/03/09 06:47:16;;;;;;;42.25;18.17;;;;;;;;;;5028003;28;20068;-76
2022/03/09 06:49:42;;;;;;;41.38;18.17;;;;;;;;;;5026763;28;20101;-75
2022/03/09 06:52:07;;;;;;;40.22;17.80;;;;;;;;;;5030572;28;20063;-76
2022/03/09 06:54:33;;;;;;;41.60;19.02;;;;;;;;;;5036024;28;20253;-76
2022/03/09 06:56:58;;;;;;;48.38;19.23;;;;;;;;;;5037505;28;20049;-75
2022/03/09 06:59:24;;;;;;;41.55;18.63;;;;;;;;;;5036791;28;20329;-82
2022/03/09 07:01:49;;;;;;;42.80;18.45;;;;;;;;;;5035624;28;20070;-72
2022/03/09 07:04:14;;;;;;;40.92;18.15;;;;;;;;;;5021553;28;20591;-78
2022/03/09 07:06:40;;;;;;;41.00;17.92;;;;;;;;;;5014069;28;20038;-77
2022/03/09 07:09:05;;;;;;;47.83;18.60;;;;;;;;;;5028037;28;20766;-78
2022/03/09 07:11:31;;;;;;;40.80;18.38;;;;;;;;;;5021586;28;20033;-77
2022/03/09 07:13:56;;;;;;;41.92;19.23;;;;;;;;;;5024070;28;20045;-76
2022/03/09 07:16:22;;;;;;;43.83;19.25;;;;;;;;;;5027676;28;20496;-77
2022/03/09 07:18:47;;;;;;;44.25;17.50;;;;;;;;;;5016646;28;20029;-79
2022/03/09 07:21:13;;;;;;;44.40;17.58;;;;;;;;;;5028586;28;20043;-78
2022/03/09 07:23:39;;;;;;;35.35;16.58;;;;;;;;;;5026640;28;20022;-79
2022/03/09 07:26:04;;;;;;;37.13;17.38;;;;;;;;;;5019908;28;20090;-79
2022/03/09 07:28:29;;;;;;;37.72;17.40;;;;;;;;;;5024252;28;20022;-75
2022/03/09 07:30:55;;;;;;;42.67;16.70;;;;;;;;;;5022393;28;20494;-80
2022/03/09 07:33:20;;;;;;;40.83;17.23;;;;;;;;;;5025948;28;20028;-75
2022/03/09 07:35:46;;;;;;;42.15;17.00;;;;;;;;;;5023622;28;20044;-78
2022/03/09 07:38:11;;;;;;;36.83;16.65;;;;;;;;;;5022341;28;20021;-77
2022/03/09 07:40:37;;;;;;;37.97;16.38;;;;;;;;;;5027078;28;20037;-76
2022/03/09 07:43:02;;;;;;;35.20;16.02;;;;;;;;;;5039517;28;20033;-80
2022/03/09 07:45:27;;;;;;;36.55;15.73;;;;;;;;;;5040398;28;20040;-78
2022/03/09 07:47:53;;;;;;;34.33;15.30;;;;;;;;;;5052528;28;20029;-79
2022/03/09 07:50:18;;;;;;;30.50;14.80;;;;;;;;;;5042265;28;20469;-76
2022/03/09 07:52:44;;;;;;;32.30;15.80;;;;;;;;;;5041980;28;20017;-76
2022/03/09 07:55:10;;;;;;;32.17;15.90;;;;;;;;;;5041391;28;20033;-80
2022/03/09 07:57:35;;;;;;;32.17;15.68;;;;;;;;;;5042409;28;20017;-80
2022/03/09 08:00:01;;;;;;;32.10;15.63;;;;;;;;;;5042094;28;20312;-80
2022/03/09 08:02:26;;;;;;;33.50;16.60;;;;;;;;;;5041815;28;20021;-77
2022/03/09 08:04:52;;;;;;;31.70;15.80;;;;;;;;;;5041758;28;20025;-79
2022/03/09 08:07:17;;;;;;;33.38;16.73;;;;;;;;;;5041656;28;20034;-79
2022/03/09 08:09:42;;;;;;;42.55;16.88;;;;;;;;;;5041479;28;20028;-79
2022/03/09 08:12:11;;;;;;;32.00;16.40;;;;;;;;;;5041785;28;20034;-79
2022/03/09 08:14:37;;;;;;;28.65;15.43;;;;;;;;;;5041940;28;20213;-79
2022/03/09 08:17:03;;;;;;;30.70;15.32;;;;;;;;;;5041485;28;20025;-78
2022/03/09 08:19:28;;;;;;;28.67;14.05;;;;;;;;;;5041999;28;20018;-79
2022/03/09 08:21:54;;;;;;;23.45;11.48;;;;;;;;;;5041586;28;20025;-78
2022/03/09 08:24:20;;;;;;;27.25;13.40;;;;;;;;;;5040523;28;20363;-79
2022/03/09 08:26:45;;;;;;;26.23;13.65;;;;;;;;;;5041632;28;20075;-79
2022/03/09 08:29:11;;;;;;;24.27;12.85;;;;;;;;;;5040443;28;20186;-78
2022/03/09 08:31:37;;;;;;;26.35;13.23;;;;;;;;;;5040889;28;20041;-80
2022/03/09 08:34:02;;;;;;;26.23;12.57;;;;;;;;;;5041450;28;20059;-78
2022/03/09 08:36:27;;;;;;;26.63;12.88;;;;;;;;;;5041451;28;20036;-78
2022/03/09 08:38:54;;;;;;;28.52;12.07;;;;;;;;;;5041017;28;20033;-78
2022/03/09 08:41:21;;;;;;;22.38;12.32;;;;;;;;;;5040727;28;20025;-75
2022/03/09 08:43:47;;;;;;;24.42;12.18;;;;;;;;;;5041384;28;20056;-79
2022/03/09 08:46:12;;;;;;;22.33;12.00;;;;;;;;;;5041160;28;20365;-79
2022/03/09 08:48:39;;;;;;;18.50;9.95;;;;;;;;;;5041373;28;20084;-78
2022/03/09 08:51:05;;;;;;;22.80;11.07;;;;;;;;;;5041160;28;20079;-79
2022/03/09 08:53:31;;;;;;;21.60;11.55;;;;;;;;;;5041028;28;20351;-79
2022/03/09 08:55:56;;;;;;;22.13;11.55;;;;;;;;;;5040791;28;20029;-78
2022/03/09 08:58:22;;;;;;;22.27;10.15;;;;;;;;;;5041192;28;20022;-79
2022/03/09 09:00:47;;;;;;;21.25;11.40;;;;;;;;;;5040930;28;20268;-79
2022/03/09 09:03:13;;;;;;;20.23;10.48;;;;;;;;;;5041136;28;20359;-78
2022/03/09 09:05:38;;;;;;;20.25;11.63;;;;;;;;;;5041070;28;20078;-78
2022/03/09 09:08:05;;;;;;;22.85;12.35;;;;;;;;;;5039995;28;20342;-77
2022/03/09 09:10:31;;;;;;;18.25;11.70;;;;;;;;;;5028747;28;20041;-79
2022/03/09 09:12:57;;;;;;;20.55;11.00;;;;;;;;;;5036209;28;20039;-79
2022/03/09 09:15:24;;;;;;;22.27;10.73;;;;;;;;;;5041121;28;20024;-79
2022/03/09 09:17:56;;;;;;;20.02;11.30;;;;;;;;;;5041607;28;20039;-80
2022/03/09 09:20:25;;;;;;;16.10;9.27;;;;;;;;;;5046968;28;20022;-79
2022/03/09 09:22:52;;;;;;;19.98;10.02;;;;;;;;;;5043597;28;20330;-79
2022/03/09 09:25:17;;;;;;;17.45;9.00;;;;;;;;;;5042271;28;20025;-79
2022/03/09 09:27:42;;;;;;;17.67;9.50;;;;;;;;;;5041996;28;20089;-76
2022/03/09 09:30:08;;;;;;;18.70;10.38;;;;;;;;;;5041170;28;20071;-80
2022/03/09 09:32:34;;;;;;;17.90;9.20;;;;;;;;;;5040992;28;20021;-78
2022/03/09 09:34:59;;;;;;;15.85;8.95;;;;;;;;;;5041064;28;20032;-79
2022/03/09 09:37:25;;;;;;;14.75;8.52;;;;;;;;;;5040937;28;20045;-80
2022/03/09 09:39:50;;;;;;;15.82;7.85;;;;;;;;;;5040747;28;20025;-79
2022/03/09 09:42:16;;;;;;;15.30;8.50;;;;;;;;;;5041001;28;20032;-79
2022/03/09 09:44:42;;;;;;;12.63;8.15;;;;;;;;;;5041394;28;20071;-79
2022/03/09 09:47:13;;;;;;;15.88;8.00;;;;;;;;;;5037741;28;20026;-80
2022/03/09 09:49:39;;;;;;;13.32;8.20;;;;;;;;;;5040923;28;20028;-79
2022/03/09 09:52:05;;;;;;;13.23;7.78;;;;;;;;;;5041585;28;20025;-79
2022/03/09 09:54:31;;;;;;;16.42;7.85;;;;;;;;;;5044780;28;20089;-79
2022/03/09 09:56:56;;;;;;;9.98;5.63;;;;;;;;;;5044669;28;20025;-78
2022/03/09 09:59:21;;;;;;;13.48;6.45;;;;;;;;;;5041245;28;20080;-78
2022/03/09 10:01:47;;;;;;;10.07;5.57;;;;;;;;;;5044430;28;20109;-79
2022/03/09 10:04:12;;;;;;;11.27;5.72;;;;;;;;;;5044447;28;20053;-79
2022/03/09 10:06:38;;;;;;;13.35;5.28;;;;;;;;;;5044005;28;20032;-79
2022/03/09 10:09:09;;;;;;;10.60;5.50;;;;;;;;;;5043985;28;20333;-77
2022/03/09 10:11:50;;;;;;;9.93;5.30;;;;;;;;;;5044160;28;20029;-79
2022/03/09 10:14:37;;;;;;;11.43;5.00;;;;;;;;;;5044474;28;20029;-78
2022/03/09 10:17:06;;;;;;;11.10;5.75;;;;;;;;;;5043939;28;20351;-79
2022/03/09 10:19:38;;;;;;;12.43;5.22;;;;;;;;;;5042257;28;20060;-79
2022/03/09 10:22:26;;;;;;;8.63;4.72;;;;;;;;;;5042934;28;20029;-76
2022/03/09 10:24:53;;;;;;;8.38;4.82;;;;;;;;;;5043675;28;20028;-77
2022/03/09 10:27:42;;;;;;;12.27;5.70;;;;;;;;;;5043910;28;20025;-76
2022/03/09 10:30:16;;;;;;;12.70;5.53;;;;;;;;;;5043159;28;20041;-76
2022/03/09 10:32:47;;;;;;;9.40;5.50;;;;;;;;;;5044035;28;20040;-76
2022/03/09 10:35:15;;;;;;;8.25;4.57;;;;;;;;;;5043688;28;20029;-76
2022/03/09 10:37:42;;;;;;;9.65;5.85;;;;;;;;;;5043751;28;20029;-76
2022/03/09 10:40:09;;;;;;;10.65;6.35;;;;;;;;;;5043472;28;20033;-77
2022/03/09 10:42:38;;;;;;;8.52;4.82;;;;;;;;;;5043572;28;20032;-77
2022/03/09 10:45:07;;;;;;;11.20;6.25;;;;;;;;;;5043377;28;20036;-76
2022/03/09 10:47:37;;;;;;;8.70;5.50;;;;;;;;;;5043579;28;20047;-76
2022/03/09 10:50:17;;;;;;;8.60;5.40;;;;;;;;;;5043586;28;20025;-76
2022/03/09 10:52:49;;;;;;;9.93;5.82;;;;;;;;;;5042448;28;20029;-75
2022/03/09 10:55:33;;;;;;;12.00;6.00;;;;;;;;;;5043470;28;20352;-78
2022/03/09 10:58:25;;;;;;;10.35;5.43;;;;;;;;;;5043539;28;20044;-78
2022/03/09 11:00:55;;;;;;;10.15;5.20;;;;;;;;;;5042883;28;20052;-79
2022/03/09 11:03:26;;;;;;;7.55;4.90;;;;;;;;;;5042526;28;20025;-78
2022/03/09 11:05:54;;;;;;;11.40;5.30;;;;;;;;;;5043154;28;20339;-78
2022/03/09 11:08:22;;;;;;;7.78;4.65;;;;;;;;;;5043131;28;20033;-78
2022/03/09 11:10:48;;;;;;;6.85;4.32;;;;;;;;;;5043086;28;20128;-76
2022/03/09 11:13:14;;;;;;;5.97;3.95;;;;;;;;;;5043122;28;20048;-79
2022/03/09 11:15:42;;;;;;;7.03;3.88;;;;;;;;;;5042824;28;20033;-79
2022/03/09 11:18:18;;;;;;;6.00;4.15;;;;;;;;;;5042955;28;20037;-79
2022/03/09 11:20:43;;;;;;;;;;;;;;;;;;5043374;28;20221;-79
2022/03/09 11:23:11;;;;;;;8.15;5.07;;;;;;;;;;5042714;28;19947;-79
2022/03/09 11:25:37;;;;;;;10.68;4.53;;;;;;;;;;5042964;28;20021;-79
2022/03/09 11:28:04;;;;;;;6.43;4.32;;;;;;;;;;5043014;28;20210;-79
2022/03/09 11:30:33;;;;;;;7.93;4.00;;;;;;;;;;5042949;28;20030;-78
2022/03/09 11:33:00;;;;;;;7.97;3.50;;;;;;;;;;5041269;28;20116;-77
2022/03/09 11:35:38;;;;;;;5.90;3.25;;;;;;;;;;5042500;28;20319;-79
2022/03/09 11:38:39;;;;;;;8.80;3.65;;;;;;;;;;5041500;28;20103;-76
2022/03/09 11:41:15;;;;;;;6.30;3.40;;;;;;;;;;5039965;28;20178;-77
2022/03/09 11:43:40;;;;;;;;;;;;;;;;;;5042521;28;20053;-75
2022/03/09 11:46:06;;;;;;;6.20;3.20;;;;;;;;;;5042325;28;19996;-75
2022/03/09 11:48:52;;;;;;;5.22;2.85;;;;;;;;;;5042529;28;20032;-74
2022/03/09 11:51:20;;;;;;;6.82;2.95;;;;;;;;;;5042041;28;20017;-74
2022/03/09 11:53:48;;;;;;;6.75;3.28;;;;;;;;;;5042211;28;20021;-75
2022/03/09 11:56:32;;;;;;;5.70;3.17;;;;;;;;;;5042198;28;20021;-75
2022/03/09 11:59:18;;;;;;;6.53;3.70;;;;;;;;;;5042246;28;20029;-74
2022/03/09 12:01:58;;;;;;;7.00;3.33;;;;;;;;;;5042229;28;20025;-75
2022/03/09 12:04:54;;;;;;;7.78;3.60;;;;;;;;;;5042408;28;20043;-77
2022/03/09 12:07:33;;;;;;;5.70;3.25;;;;;;;;;;5038216;28;20049;-78
2022/03/09 12:10:10;;;;;;;6.80;3.55;;;;;;;;;;5045174;28;20043;-76
2022/03/09 12:12:37;;;;;;;5.18;3.05;;;;;;;;;;5051533;28;20076;-74
2022/03/09 12:15:03;;;;;;;6.18;3.30;;;;;;;;;;5042467;28;20206;-73
2022/03/09 12:17:39;;;;;;;6.90;3.53;;;;;;;;;;5041918;28;20029;-74
2022/03/09 12:20:17;;;;;;;6.25;3.80;;;;;;;;;;5040381;28;20029;-71
2022/03/09 12:22:54;;;;;;;6.78;3.67;;;;;;;;;;5040301;28;20120;-80
2022/03/09 12:25:48;;;;;;;8.05;3.88;;;;;;;;;;5035828;28;20092;-79
2022/03/09 12:28:26;;;;;;;9.93;4.20;;;;;;;;;;5040619;28;20037;-78
2022/03/09 12:31:19;;;;;;;8.77;4.22;;;;;;;;;;5041592;28;20052;-82
2022/03/09 12:33:49;;;;;;;7.68;3.72;;;;;;;;;;5034924;28;20321;-75
2022/03/09 12:36:14;;;;;;;7.78;4.40;;;;;;;;;;5042453;28;20271;-75
2022/03/09 12:38:42;;;;;;;10.27;3.88;;;;;;;;;;5041519;28;20377;-75
2022/03/09 12:41:24;;;;;;;5.50;3.50;;;;;;;;;;5050105;28;20119;-73
2022/03/09 12:43:53;;;;;;;9.05;3.92;;;;;;;;;;5054657;28;20085;-73
2022/03/09 12:46:19;;;;;;;12.88;3.90;;;;;;;;;;5039993;28;20013;-74
2022/03/09 12:48:44;;;;;;;8.15;4.07;;;;;;;;;;5043189;28;20025;-74
2022/03/09 12:51:10;;;;;;;6.32;3.80;;;;;;;;;;5061066;28;20020;-73
2022/03/09 12:53:37;;;;;;;9.50;3.95;;;;;;;;;;5051774;28;20034;-72
2022/03/09 12:56:19;;;;;;;9.13;3.55;;;;;;;;;;5041153;28;20132;-73
2022/03/09 12:58:45;;;;;;;7.47;4.25;;;;;;;;;;5044135;28;20245;-72
2022/03/09 13:01:14;;;;;;;10.70;4.70;;;;;;;;;;5041055;28;20037;-73
2022/03/09 13:03:41;;;;;;;9.55;4.22;;;;;;;;;;5042522;28;20096;-72
2022/03/09 13:06:24;;;;;;;8.23;4.65;;;;;;;;;;5054237;28;20044;-73
2022/03/09 13:08:49;;;;;;;7.95;4.43;;;;;;;;;;5060878;28;20029;-77
2022/03/09 13:11:31;;;;;;;7.80;4.57;;;;;;;;;;5057924;28;20048;-76
2022/03/09 13:13:58;;;;;;;9.57;3.63;;;;;;;;;;5031912;28;20038;-75
2022/03/09 13:16:26;;;;;;;11.93;3.95;;;;;;;;;;5041241;28;20092;-74
2022/03/09 13:18:56;;;;;;;8.60;4.28;;;;;;;;;;5040150;28;20029;-83
2022/03/09 13:21:28;;;;;;;8.00;4.40;;;;;;;;;;5040778;28;20347;-81
2022/03/09 13:24:06;;;;;;;7.18;4.55;;;;;;;;;;5040639;28;20097;-84
2022/03/09 13:26:46;;;;;;;7.47;4.70;;;;;;;;;;5041484;28;20431;-82
2022/03/09 13:29:16;;;;;;;7.03;4.38;;;;;;;;;;5049067;28;20013;-84
2022/03/09 13:31:44;;;;;;;8.38;4.70;;;;;;;;;;5048009;28;20017;-81
2022/03/09 13:34:16;;;;;;;7.65;4.85;;;;;;;;;;5043774;28;20026;-79
2022/03/09 13:36:41;;;;;;;9.35;4.55;;;;;;;;;;5044739;28;20018;-86
2022/03/09 13:39:07;;;;;;;7.60;4.60;;;;;;;;;;5044906;28;20037;-80
2022/03/09 13:41:41;;;;;;;8.73;4.55;;;;;;;;;;5049009;28;20029;-82
2022/03/09 13:44:29;;;;;;;7.53;4.43;;;;;;;;;;5065074;28;20309;-79
2022/03/09 13:47:03;;;;;;;13.88;4.85;;;;;;;;;;5064558;28;20096;-79
2022/03/09 13:49:47;;;;;;;8.30;4.75;;;;;;;;;;5064851;28;20503;-79
2022/03/09 13:52:33;;;;;;;8.82;4.68;;;;;;;;;;5045701;28;20040;-81
2022/03/09 13:55:02;;;;;;;8.07;4.90;;;;;;;;;;5064505;28;20025;-82
2022/03/09 13:57:31;;;;;;;8.80;4.72;;;;;;;;;;5062086;28;20070;-77
2022/03/09 13:59:57;;;;;;;11.05;4.18;;;;;;;;;;5048129;28;20310;-78
2022/03/09 14:02:24;;;;;;;6.50;3.78;;;;;;;;;;5045105;28;20068;-79
2022/03/09 14:04:49;;;;;;;8.20;4.80;;;;;;;;;;5044548;28;20024;-80
2022/03/09 14:07:16;;;;;;;7.65;3.75;;;;;;;;;;5044019;28;20037;-80
2022/03/09 14:09:41;;;;;;;8.38;5.00;;;;;;;;;;5047987;28;20088;-80
2022/03/09 14:12:16;;;;;;;9.35;5.30;;;;;;;;;;5051087;28;20233;-76
2022/03/09 14:14:43;;;;;;;10.73;5.07;;;;;;;;;;5064272;28;20071;-82
2022/03/09 14:17:09;;;;;;;8.80;5.20;;;;;;;;;;5051264;28;20025;-82
2022/03/09 14:19:34;;;;;;;13.00;5.53;;;;;;;;;;5046131;28;20225;-79
2022/03/09 14:21:59;;;;;;;11.90;4.93;;;;;;;;;;5042939;28;20036;-82
2022/03/09 14:24:25;;;;;;;8.50;4.85;;;;;;;;;;5044118;28;20033;-77
2022/03/09 14:26:52;;;;;;;8.30;4.72;;;;;;;;;;5049591;28;20025;-76
2022/03/09 14:29:19;;;;;;;8.38;4.85;;;;;;;;;;5043622;28;20074;-77